Time,TemperatureF,DewpointF,PressureIn,WindDirection,WindDirectionDegrees,WindSpeedMPH,WindSpeedGustMPH,Humidity,HourlyPrecipIn,Conditions,Clouds,dailyrainin,SoftwareType,DateUTC
2013-04-18 00:02:00,39.9,-53.7,29.70,North,0,0.0,0.0,1,0.00,CLR,OVC,0.00,WeatherDisplay:10.37,2013-04-18 05:02:00,
2013-04-18 00:07:00,39.9,-53.7,29.69,North,0,0.0,0.0,1,0.00,CLR,OVC,0.00,WeatherDisplay:10.37,2013-04-18 05:07:00,
2013-04-18 00:12:00,39.7,-53.8,29.70,North,0,0.0,0.0,1,0.00,CLR,OVC,0.00,WeatherDisplay:10.37,2013-04-18 05:12:00,
2013-04-18 00:17:00,39.7,-53.8,29.69,North,0,0.0,0.0,1,0.00,CLR,OVC,0.00,WeatherDisplay:10.37,2013-04-18 05:17:00,
2013-04-18 00:22:00,39.7,-53.8,29.70,North,0,0.0,0.0,1,0.00,CLR,OVC,0.00,WeatherDisplay:10.37,2013-04-18 05:22:00,
2013-04-18 00:27:00,39.7,-53.8,29.69,North,0,0.0,0.0,1,0.00,CLR,OVC,0.00,WeatherDisplay:10.37,2013-04-18 05:27:00,
2013-04-18 00:32:00,39.7,-53.8,29.69,North,0,0.0,0.0,1,0.00,CLR,OVC,0.00,WeatherDisplay:10.37,2013-04-18 05:32:00,
2013-04-18 00:37:00,39.6,-53.9,29.68,North,0,0.0,0.0,1,0.00,CLR,OVC,0.00,WeatherDisplay:10.37,2013-04-18 05:37:00,
2013-04-18 00:42:00,39.6,-53.9,29.67,North,0,0.0,0.0,1,0.00,CLR,OVC,0.00,WeatherDisplay:10.37,2013-04-18 05:42:00,
2013-04-18 00:47:00,39.6,-53.9,29.66,North,0,0.0,0.0,1,0.00,CLR,OVC,0.00,WeatherDisplay:10.37,2013-04-18 05:47:00,
2013-04-18 00:52:00,39.4,-54.1,29.67,North,0,0.0,0.0,1,0.00,CLR,OVC,0.00,WeatherDisplay:10.37,2013-04-18 05:52:00,
2013-04-18 00:57:00,39.4,-54.1,29.68,North,0,0.0,0.0,1,0.00,CLR,OVC,0.00,WeatherDisplay:10.37,2013-04-18 05:57:00,
2013-04-18 01:02:00,39.4,-54.1,29.67,North,0,0.0,0.0,1,0.00,CLR,OVC,0.00,WeatherDisplay:10.37,2013-04-18 06:02:00,
2013-04-18 01:07:00,39.4,-54.1,29.67,North,0,0.0,0.0,1,0.00,CLR,OVC,0.00,WeatherDisplay:10.37,2013-04-18 06:07:00,
2013-04-18 01:12:00,39.4,-54.1,29.67,North,0,0.0,0.0,1,0.00,CLR,OVC,0.00,WeatherDisplay:10.37,2013-04-18 06:12:00,
2013-04-18 01:17:00,39.4,-54.1,29.65,North,0,0.0,0.0,1,0.00,CLR,OVC,0.00,WeatherDisplay:10.37,2013-04-18 06:17:00,
2013-04-18 01:22:00,39.4,-54.1,29.66,North,0,0.0,0.0,1,0.00,CLR,OVC,0.00,WeatherDisplay:10.37,2013-04-18 06:22:00,
2013-04-18 01:27:00,39.2,-54.2,29.66,North,0,0.0,0.0,1,0.00,CLR,OVC,0.00,WeatherDisplay:10.37,2013-04-18 06:27:00,
2013-04-18 01:32:00,39.2,-54.2,29.67,North,0,0.0,0.0,1,0.00,CLR,OVC,0.00,WeatherDisplay:10.37,2013-04-18 06:32:00,
2013-04-18 01:37:00,39.2,-54.2,29.66,North,0,0.0,0.0,1,0.00,CLR,OVC,0.00,WeatherDisplay:10.37,2013-04-18 06:37:00,
2013-04-18 01:42:00,39.2,-54.2,29.66,North,0,0.0,0.0,1,0.00,CLR,OVC,0.00,WeatherDisplay:10.37,2013-04-18 06:42:00,
2013-04-18 01:47:00,39.0,-54.3,29.67,North,0,0.0,0.0,1,0.00,CLR,OVC,0.00,WeatherDisplay:10.37,2013-04-18 06:47:00,
2013-04-18 01:52:00,39.0,-54.3,29.66,North,0,0.0,0.0,1,0.00,CLR,OVC,0.00,WeatherDisplay:10.37,2013-04-18 06:52:00,
2013-04-18 01:57:00,38.8,-54.4,29.67,North,0,0.0,0.0,1,0.00,CLR,OVC,0.00,WeatherDisplay:10.37,2013-04-18 06:57:00,
2013-04-18 02:02:00,38.8,-54.4,29.68,North,0,0.0,0.0,1,0.00,CLR,OVC,0.00,WeatherDisplay:10.37,2013-04-18 07:02:00,
2013-04-18 02:07:00,38.8,-54.4,29.68,North,0,0.0,0.0,1,0.00,CLR,OVC,0.00,WeatherDisplay:10.37,2013-04-18 07:07:00,
2013-04-18 02:12:00,38.7,-54.5,29.69,North,0,0.0,0.0,1,0.00,CLR,OVC,0.00,WeatherDisplay:10.37,2013-04-18 07:12:00,
2013-04-18 02:17:00,38.7,-54.5,29.69,North,0,0.0,0.0,1,0.00,CLR,OVC,0.00,WeatherDisplay:10.37,2013-04-18 07:17:00,
2013-04-18 02:22:00,38.7,-54.5,29.70,North,0,0.0,0.0,1,0.00,CLR,OVC,0.00,WeatherDisplay:10.37,2013-04-18 07:22:00,
2013-04-18 02:27:00,38.7,-54.5,29.70,North,0,0.0,0.0,1,0.00,CLR,OVC,0.00,WeatherDisplay:10.37,2013-04-18 07:27:00,
2013-04-18 02:32:00,38.7,-54.5,29.70,North,0,0.0,0.0,1,0.00,CLR,OVC,0.00,WeatherDisplay:10.37,2013-04-18 07:32:00,
2013-04-18 02:37:00,38.5,-54.6,29.70,North,0,0.0,0.0,1,0.00,CLR,OVC,0.00,WeatherDisplay:10.37,2013-04-18 07:37:00,
2013-04-18 02:42:00,38.5,-54.6,29.69,North,0,0.0,0.0,1,0.00,CLR,OVC,0.00,WeatherDisplay:10.37,2013-04-18 07:42:00,
2013-04-18 02:47:00,38.5,-54.6,29.68,North,0,0.0,0.0,1,0.00,CLR,OVC,0.00,WeatherDisplay:10.37,2013-04-18 07:47:00,
2013-04-18 02:52:00,38.3,-54.7,29.68,North,0,0.0,0.0,1,0.00,CLR,OVC,0.00,WeatherDisplay:10.37,2013-04-18 07:52:00,
2013-04-18 02:57:00,38.1,-54.8,29.66,North,0,0.0,0.0,1,0.00,CLR,OVC,0.00,WeatherDisplay:10.37,2013-04-18 07:57:00,
2013-04-18 03:02:00,38.1,-54.8,29.65,North,0,0.0,0.0,1,0.00,CLR,OVC,0.00,WeatherDisplay:10.37,2013-04-18 08:02:00,
2013-04-18 03:07:00,38.1,-54.8,29.65,North,0,0.0,0.0,1,0.00,CLR,OVC,0.00,WeatherDisplay:10.37,2013-04-18 08:07:00,
2013-04-18 03:12:00,37.9,-55.0,29.64,North,0,0.0,0.0,1,0.00,CLR,OVC,0.00,WeatherDisplay:10.37,2013-04-18 08:12:00,
2013-04-18 03:17:00,37.9,-55.0,29.65,North,0,0.0,0.0,1,0.00,CLR,OVC,0.00,WeatherDisplay:10.37,2013-04-18 08:17:00,
2013-04-18 03:22:00,37.9,-55.0,29.65,North,0,0.0,0.0,1,0.00,CLR,OVC,0.00,WeatherDisplay:10.37,2013-04-18 08:22:00,
2013-04-18 03:27:00,37.9,-55.0,29.64,North,0,0.0,0.0,1,0.00,CLR,OVC,0.00,WeatherDisplay:10.37,2013-04-18 08:27:00,
2013-04-18 03:32:00,37.8,-55.1,29.63,North,0,0.0,0.0,1,0.00,CLR,OVC,0.00,WeatherDisplay:10.37,2013-04-18 08:32:00,
2013-04-18 03:37:00,37.8,-55.1,29.62,North,0,0.0,0.0,1,0.00,CLR,OVC,0.00,WeatherDisplay:10.37,2013-04-18 08:37:00,
2013-04-18 03:43:00,37.9,-55.0,29.63,North,0,0.0,0.0,1,0.00,CLR,OVC,0.00,WeatherDisplay:10.37,2013-04-18 08:43:00,
2013-04-18 03:48:00,37.8,-55.1,29.64,North,0,0.0,0.0,1,0.00,CLR,OVC,0.00,WeatherDisplay:10.37,2013-04-18 08:48:00,
2013-04-18 03:53:00,37.8,-55.1,29.64,North,0,0.0,0.0,1,0.00,CLR,OVC,0.00,WeatherDisplay:10.37,2013-04-18 08:53:00,
2013-04-18 03:58:00,37.4,-55.3,29.63,North,0,0.0,0.0,1,0.00,CLR,OVC,0.00,WeatherDisplay:10.37,2013-04-18 08:58:00,
2013-04-18 04:03:00,37.2,-55.4,29.63,North,0,0.0,0.0,1,0.00,CLR,OVC,0.00,WeatherDisplay:10.37,2013-04-18 09:03:00,
2013-04-18 04:08:00,37.2,-55.4,29.63,North,0,0.0,0.0,1,0.00,CLR,OVC,0.00,WeatherDisplay:10.37,2013-04-18 09:08:00,
2013-04-18 04:13:00,37.2,-55.4,29.63,North,0,0.0,0.0,1,0.00,CLR,OVC,0.00,WeatherDisplay:10.37,2013-04-18 09:13:00,
2013-04-18 04:18:00,37.0,-55.5,29.64,North,0,0.0,0.0,1,0.00,CLR,OVC,0.00,WeatherDisplay:10.37,2013-04-18 09:18:00,
2013-04-18 04:23:00,37.0,-55.5,29.64,North,0,0.0,0.0,1,0.00,CLR,OVC,0.00,WeatherDisplay:10.37,2013-04-18 09:23:00,
2013-04-18 04:28:00,37.0,-55.5,29.63,North,0,0.0,0.0,1,0.00,CLR,OVC,0.00,WeatherDisplay:10.37,2013-04-18 09:28:00,
2013-04-18 04:33:00,37.0,-55.5,29.62,North,0,0.0,0.0,1,0.00,CLR,OVC,0.00,WeatherDisplay:10.37,2013-04-18 09:33:00,
2013-04-18 04:38:00,36.9,-55.6,29.62,North,0,0.0,0.0,1,0.00,CLR,OVC,0.00,WeatherDisplay:10.37,2013-04-18 09:38:00,
2013-04-18 04:43:00,36.9,-55.6,29.61,North,0,0.0,0.0,1,0.00,CLR,OVC,0.00,WeatherDisplay:10.37,2013-04-18 09:43:00,
2013-04-18 04:48:00,36.9,-55.6,29.60,North,0,0.0,0.0,1,0.00,CLR,OVC,0.00,WeatherDisplay:10.37,2013-04-18 09:48:00,
2013-04-18 04:53:00,36.9,-55.6,29.60,North,0,0.0,0.0,1,0.00,CLR,OVC,0.00,WeatherDisplay:10.37,2013-04-18 09:53:00,
2013-04-18 04:58:00,36.9,-55.6,29.60,North,0,0.0,0.0,1,0.00,CLR,OVC,0.00,WeatherDisplay:10.37,2013-04-18 09:58:00,
2013-04-18 05:03:00,36.9,-55.6,29.61,North,0,0.0,0.0,1,0.00,CLR,OVC,0.00,WeatherDisplay:10.37,2013-04-18 10:03:00,
2013-04-18 05:08:00,36.9,-55.6,29.62,North,0,0.0,0.0,1,0.00,CLR,OVC,0.00,WeatherDisplay:10.37,2013-04-18 10:08:00,
2013-04-18 05:13:00,36.7,-55.7,29.62,North,0,0.0,0.0,1,0.00,CLR,OVC,0.00,WeatherDisplay:10.37,2013-04-18 10:13:00,
2013-04-18 05:18:00,36.7,-55.7,29.62,North,0,0.0,0.0,1,0.00,CLR,OVC,0.00,WeatherDisplay:10.37,2013-04-18 10:18:00,
2013-04-18 05:23:00,36.7,-55.7,29.62,North,0,0.0,0.0,1,0.00,CLR,OVC,0.00,WeatherDisplay:10.37,2013-04-18 10:23:00,
2013-04-18 05:28:00,36.7,-55.7,29.63,North,0,0.0,0.0,1,0.00,CLR,OVC,0.00,WeatherDisplay:10.37,2013-04-18 10:28:00,
2013-04-18 05:33:00,36.5,-55.9,29.63,North,0,0.0,0.0,1,0.00,CLR,OVC,0.00,WeatherDisplay:10.37,2013-04-18 10:33:00,
2013-04-18 05:38:00,36.5,-55.9,29.64,North,0,0.0,0.0,1,0.00,CLR,OVC,0.00,WeatherDisplay:10.37,2013-04-18 10:38:00,
2013-04-18 05:43:00,36.5,-55.9,29.64,North,0,0.0,0.0,1,0.00,CLR,OVC,0.00,WeatherDisplay:10.37,2013-04-18 10:43:00,
2013-04-18 05:48:00,36.5,-55.9,29.65,North,0,0.0,0.0,1,0.00,CLR,OVC,0.00,WeatherDisplay:10.37,2013-04-18 10:48:00,
2013-04-18 05:53:00,36.5,-55.9,29.65,North,0,0.0,0.0,1,0.00,CLR,OVC,0.00,WeatherDisplay:10.37,2013-04-18 10:53:00,
2013-04-18 05:58:00,36.5,-55.9,29.65,North,0,0.0,0.0,1,0.00,CLR,OVC,0.00,WeatherDisplay:10.37,2013-04-18 10:58:00,
2013-04-18 06:03:00,36.5,-55.9,29.65,North,0,0.0,0.0,1,0.00,CLR,OVC,0.00,WeatherDisplay:10.37,2013-04-18 11:03:00,
2013-04-18 06:08:00,36.5,-55.9,29.65,North,0,0.0,0.0,1,0.00,CLR,OVC,0.00,WeatherDisplay:10.37,2013-04-18 11:08:00,
2013-04-18 06:13:00,36.5,-55.9,29.65,North,0,0.0,0.0,1,0.00,CLR,OVC,0.00,WeatherDisplay:10.37,2013-04-18 11:13:00,
2013-04-18 06:18:00,36.5,-55.9,29.64,North,0,0.0,0.0,1,0.00,CLR,OVC,0.00,WeatherDisplay:10.37,2013-04-18 11:18:00,
2013-04-18 06:23:00,36.5,-55.9,29.64,North,0,0.0,0.0,1,0.00,CLR,OVC,0.00,WeatherDisplay:10.37,2013-04-18 11:23:00,
2013-04-18 06:28:00,36.5,-55.9,29.64,North,0,0.0,0.0,1,0.00,CLR,OVC,0.00,WeatherDisplay:10.37,2013-04-18 11:28:00,
2013-04-18 06:33:00,36.5,-55.9,29.65,North,0,0.0,0.0,1,0.00,CLR,OVC,0.00,WeatherDisplay:10.37,2013-04-18 11:33:00,
2013-04-18 06:38:00,36.5,-55.9,29.65,North,0,0.0,0.0,1,0.00,CLR,OVC,0.00,WeatherDisplay:10.37,2013-04-18 11:38:00,
2013-04-18 06:43:00,36.5,-55.9,29.65,North,0,0.0,0.0,1,0.00,CLR,OVC,0.00,WeatherDisplay:10.37,2013-04-18 11:43:00,
2013-04-18 06:48:00,36.5,-55.9,29.65,North,0,0.0,0.0,1,0.00,CLR,OVC,0.00,WeatherDisplay:10.37,2013-04-18 11:48:00,
2013-04-18 06:53:00,36.5,-55.9,29.65,North,0,0.0,0.0,1,0.00,CLR,OVC,0.00,WeatherDisplay:10.37,2013-04-18 11:53:00,
2013-04-18 06:58:00,36.5,-55.9,29.67,North,0,0.0,0.0,1,0.00,CLR,OVC,0.00,WeatherDisplay:10.37,2013-04-18 11:58:00,
2013-04-18 07:03:00,36.3,-56.0,29.67,North,0,0.0,0.0,1,0.00,CLR,OVC,0.00,WeatherDisplay:10.37,2013-04-18 12:03:00,
2013-04-18 07:08:00,36.3,-56.0,29.67,North,0,0.0,0.0,1,0.00,CLR,OVC,0.00,WeatherDisplay:10.37,2013-04-18 12:08:00,
2013-04-18 07:13:00,36.1,-56.1,29.66,North,0,0.0,0.0,1,0.00,CLR,OVC,0.00,WeatherDisplay:10.37,2013-04-18 12:13:00,
2013-04-18 07:18:00,36.0,-56.2,29.65,North,0,0.0,0.0,1,0.00,CLR,OVC,0.00,WeatherDisplay:10.37,2013-04-18 12:18:00,
2013-04-18 07:23:00,36.1,-56.1,29.63,North,0,0.0,0.0,1,0.00,CLR,OVC,0.00,WeatherDisplay:10.37,2013-04-18 12:23:00,
2013-04-18 07:28:00,36.1,-56.1,29.64,North,0,0.0,0.0,1,0.00,CLR,OVC,0.00,WeatherDisplay:10.37,2013-04-18 12:28:00,
2013-04-18 07:33:00,36.1,-56.1,29.60,North,0,0.0,0.0,1,0.00,CLR,OVC,0.00,WeatherDisplay:10.37,2013-04-18 12:33:00,
2013-04-18 07:38:00,36.1,-56.1,29.53,North,0,0.0,0.0,1,0.00,CLR,OVC,0.00,WeatherDisplay:10.37,2013-04-18 12:38:00,
2013-04-18 07:43:00,36.0,-56.2,29.53,North,0,0.0,0.0,1,0.00,CLR,OVC,0.00,WeatherDisplay:10.37,2013-04-18 12:43:00,
2013-04-18 07:48:00,36.0,-56.2,29.54,North,0,0.0,0.0,1,0.00,CLR,OVC,0.00,WeatherDisplay:10.37,2013-04-18 12:48:00,
2013-04-18 07:53:00,36.3,-56.0,29.50,North,0,0.0,0.0,1,0.00,CLR,OVC,0.00,WeatherDisplay:10.37,2013-04-18 12:53:00,
2013-04-18 07:58:00,36.3,-56.0,29.53,North,0,0.0,0.0,1,0.00,CLR,OVC,0.00,WeatherDisplay:10.37,2013-04-18 12:58:00,
2013-04-18 08:03:00,36.7,-55.7,29.56,North,0,0.0,0.0,1,0.00,CLR,OVC,0.00,WeatherDisplay:10.37,2013-04-18 13:03:00,
2013-04-18 08:08:00,36.7,-55.7,29.57,North,0,0.0,0.0,1,0.00,CLR,OVC,0.00,WeatherDisplay:10.37,2013-04-18 13:08:00,
2013-04-18 08:13:00,36.7,-55.7,29.59,North,0,0.0,0.0,1,0.00,CLR,OVC,0.00,WeatherDisplay:10.37,2013-04-18 13:13:00,
2013-04-18 08:18:00,36.7,-55.7,29.57,North,0,0.0,0.0,1,0.00,CLR,OVC,0.00,WeatherDisplay:10.37,2013-04-18 13:18:00,
2013-04-18 08:23:00,36.7,-55.7,29.57,North,0,0.0,0.0,1,0.00,CLR,OVC,0.00,WeatherDisplay:10.37,2013-04-18 13:23:00,
2013-04-18 08:28:00,36.7,-55.7,29.56,North,0,0.0,0.0,1,0.00,CLR,OVC,0.00,WeatherDisplay:10.37,2013-04-18 13:28:00,
2013-04-18 08:34:00,36.7,-55.7,29.59,North,0,0.0,0.0,1,0.00,CLR,OVC,0.00,WeatherDisplay:10.37,2013-04-18 13:34:00,
2013-04-18 08:39:00,36.7,-55.7,29.58,North,0,0.0,0.0,1,0.00,CLR,OVC,0.00,WeatherDisplay:10.37,2013-04-18 13:39:00,
2013-04-18 08:44:00,36.7,-55.7,29.58,North,0,0.0,0.0,1,0.00,CLR,OVC,0.00,WeatherDisplay:10.37,2013-04-18 13:44:00,
2013-04-18 08:49:00,36.7,-55.7,29.58,North,0,0.0,0.0,1,0.00,CLR,OVC,0.00,WeatherDisplay:10.37,2013-04-18 13:49:00,
2013-04-18 08:54:00,36.7,-55.7,29.58,North,0,0.0,0.0,1,0.00,CLR,OVC,0.00,WeatherDisplay:10.37,2013-04-18 13:54:00,
2013-04-18 08:59:00,36.7,-55.7,29.57,North,0,0.0,0.0,1,0.00,CLR,OVC,0.00,WeatherDisplay:10.37,2013-04-18 13:59:00,
2013-04-18 09:04:00,36.7,-55.7,29.57,North,0,0.0,0.0,1,0.00,CLR,OVC,0.00,WeatherDisplay:10.37,2013-04-18 14:04:00,
2013-04-18 09:09:00,36.7,-55.7,29.56,North,0,0.0,0.0,1,0.00,CLR,OVC,0.00,WeatherDisplay:10.37,2013-04-18 14:09:00,
2013-04-18 09:14:00,36.7,-55.7,29.56,North,0,0.0,0.0,1,0.00,CLR,OVC,0.00,WeatherDisplay:10.37,2013-04-18 14:14:00,
2013-04-18 09:19:00,36.7,-55.7,29.56,North,0,0.0,0.0,1,0.00,CLR,OVC,0.00,WeatherDisplay:10.37,2013-04-18 14:19:00,
2013-04-18 09:24:00,36.7,-55.7,29.56,North,0,0.0,0.0,1,0.00,CLR,OVC,0.00,WeatherDisplay:10.37,2013-04-18 14:24:00,
2013-04-18 09:29:00,37.9,-55.0,29.55,North,0,0.0,0.0,1,0.00,CLR,OVC,0.00,WeatherDisplay:10.37,2013-04-18 14:29:00,
2013-04-18 09:34:00,38.1,-54.8,29.56,North,0,0.0,0.0,1,0.00,CLR,OVC,0.00,WeatherDisplay:10.37,2013-04-18 14:34:00,
2013-04-18 09:39:00,38.1,-54.8,29.56,North,0,0.0,0.0,1,0.00,CLR,OVC,0.00,WeatherDisplay:10.37,2013-04-18 14:39:00,
2013-04-18 09:44:00,38.3,-54.7,29.56,North,0,0.0,0.0,1,0.00,CLR,OVC,0.00,WeatherDisplay:10.37,2013-04-18 14:44:00,
2013-04-18 09:49:00,38.3,-54.7,29.55,North,0,0.0,0.0,1,0.00,CLR,OVC,0.00,WeatherDisplay:10.37,2013-04-18 14:49:00,
2013-04-18 09:54:00,38.5,-54.6,29.54,North,0,0.0,0.0,1,0.00,CLR,OVC,0.00,WeatherDisplay:10.37,2013-04-18 14:54:00,
2013-04-18 09:59:00,38.7,-54.5,29.54,North,0,0.0,0.0,1,0.00,CLR,OVC,0.00,WeatherDisplay:10.37,2013-04-18 14:59:00,
2013-04-18 10:04:00,38.8,-54.4,29.54,North,0,0.0,0.0,1,0.00,CLR,OVC,0.00,WeatherDisplay:10.37,2013-04-18 15:04:00,
2013-04-18 10:09:00,38.8,-54.4,29.54,North,0,0.0,0.0,1,0.00,CLR,OVC,0.00,WeatherDisplay:10.37,2013-04-18 15:09:00,
2013-04-18 10:14:00,38.8,-54.4,29.53,North,0,0.0,0.0,1,0.00,CLR,OVC,0.00,WeatherDisplay:10.37,2013-04-18 15:14:00,
2013-04-18 10:19:00,39.0,-54.3,29.52,North,0,0.0,0.0,1,0.00,CLR,OVC,0.00,WeatherDisplay:10.37,2013-04-18 15:19:00,
2013-04-18 10:24:00,39.0,-54.3,29.52,North,0,0.0,0.0,1,0.00,CLR,OVC,0.00,WeatherDisplay:10.37,2013-04-18 15:24:00,
2013-04-18 10:29:00,39.0,-54.3,29.52,North,0,0.0,0.0,1,0.00,CLR,OVC,0.00,WeatherDisplay:10.37,2013-04-18 15:29:00,
2013-04-18 10:34:00,39.2,-54.2,29.52,North,0,0.0,0.0,1,0.00,CLR,OVC,0.00,WeatherDisplay:10.37,2013-04-18 15:34:00,
2013-04-18 10:39:00,39.6,-53.9,29.52,North,0,0.0,0.0,1,0.00,CLR,OVC,0.00,WeatherDisplay:10.37,2013-04-18 15:39:00,
2013-04-18 10:44:00,39.4,-54.1,29.53,North,0,0.0,0.0,1,0.00,CLR,OVC,0.00,WeatherDisplay:10.37,2013-04-18 15:44:00,
2013-04-18 10:49:00,39.6,-53.9,29.52,North,0,0.0,0.0,1,0.00,CLR,OVC,0.00,WeatherDisplay:10.37,2013-04-18 15:49:00,
2013-04-18 10:54:00,39.9,-53.7,29.52,North,0,0.0,0.0,1,0.00,CLR,OVC,0.00,WeatherDisplay:10.37,2013-04-18 15:54:00,
2013-04-18 10:59:00,39.9,-53.7,29.52,North,0,0.0,0.0,1,0.00,CLR,OVC,0.00,WeatherDisplay:10.37,2013-04-18 15:59:00,
2013-04-18 11:04:00,39.9,-53.7,29.53,North,0,0.0,0.0,1,0.00,CLR,OVC,0.00,WeatherDisplay:10.37,2013-04-18 16:04:00,
2013-04-18 11:09:00,39.9,-53.7,29.53,North,0,0.0,0.0,1,0.00,CLR,OVC,0.00,WeatherDisplay:10.37,2013-04-18 16:09:00,
2013-04-18 11:14:00,39.9,-53.7,29.53,North,0,0.0,0.0,1,0.00,CLR,OVC,0.00,WeatherDisplay:10.37,2013-04-18 16:14:00,
2013-04-18 11:19:00,40.1,-53.6,29.52,North,0,0.0,0.0,1,0.00,CLR,OVC,0.00,WeatherDisplay:10.37,2013-04-18 16:19:00,
2013-04-18 11:24:00,40.3,-53.5,29.51,North,0,0.0,0.0,1,0.00,CLR,OVC,0.00,WeatherDisplay:10.37,2013-04-18 16:24:00,
2013-04-18 11:29:00,40.3,-53.5,29.50,North,0,0.0,0.0,1,0.00,CLR,OVC,0.00,WeatherDisplay:10.37,2013-04-18 16:29:00,
2013-04-18 11:34:00,40.3,-53.5,29.49,North,0,0.0,0.0,1,0.00,CLR,OVC,0.00,WeatherDisplay:10.37,2013-04-18 16:34:00,
2013-04-18 11:39:00,40.3,-53.5,29.49,North,0,0.0,0.0,1,0.00,CLR,OVC,0.00,WeatherDisplay:10.37,2013-04-18 16:39:00,
2013-04-18 11:44:00,40.5,-53.4,29.48,North,0,0.0,0.0,1,0.00,CLR,OVC,0.00,WeatherDisplay:10.37,2013-04-18 16:44:00,
2013-04-18 11:49:00,40.5,-53.4,29.47,North,0,0.0,0.0,1,0.00,CLR,OVC,0.00,WeatherDisplay:10.37,2013-04-18 16:49:00,
2013-04-18 11:54:00,40.3,-53.5,29.47,North,0,0.0,0.0,1,0.00,CLR,OVC,0.00,WeatherDisplay:10.37,2013-04-18 16:54:00,
2013-04-18 11:59:00,40.5,-53.4,29.47,North,0,0.0,0.0,1,0.00,CLR,OVC,0.00,WeatherDisplay:10.37,2013-04-18 16:59:00,
2013-04-18 12:04:00,40.5,-53.4,29.47,North,0,0.0,0.0,1,0.00,CLR,OVC,0.00,WeatherDisplay:10.37,2013-04-18 17:04:00,
2013-04-18 12:09:00,40.6,-53.3,29.46,North,0,0.0,0.0,1,0.00,CLR,OVC,0.00,WeatherDisplay:10.37,2013-04-18 17:09:00,
2013-04-18 12:14:00,40.6,-53.3,29.47,North,0,0.0,0.0,1,0.00,CLR,OVC,0.00,WeatherDisplay:10.37,2013-04-18 17:14:00,
2013-04-18 12:19:00,40.6,-53.3,29.46,North,0,0.0,0.0,1,0.00,CLR,OVC,0.00,WeatherDisplay:10.37,2013-04-18 17:19:00,
2013-04-18 12:24:00,40.6,-53.3,29.45,North,0,0.0,0.0,1,0.00,CLR,OVC,0.00,WeatherDisplay:10.37,2013-04-18 17:24:00,
2013-04-18 12:29:00,40.6,-53.3,29.45,North,0,0.0,0.0,1,0.00,CLR,OVC,0.00,WeatherDisplay:10.37,2013-04-18 17:29:00,
2013-04-18 12:34:00,40.6,-53.3,29.44,North,0,0.0,0.0,1,0.00,CLR,OVC,0.00,WeatherDisplay:10.37,2013-04-18 17:34:00,
2013-04-18 12:39:00,40.6,-53.3,29.44,North,0,0.0,0.0,1,0.00,CLR,OVC,0.00,WeatherDisplay:10.37,2013-04-18 17:39:00,
2013-04-18 12:44:00,40.6,-53.3,29.43,North,0,0.0,0.0,1,0.00,CLR,OVC,0.00,WeatherDisplay:10.37,2013-04-18 17:44:00,
2013-04-18 12:49:00,40.6,-53.3,29.43,North,0,0.0,0.0,1,0.00,CLR,OVC,0.00,WeatherDisplay:10.37,2013-04-18 17:49:00,
2013-04-18 12:54:00,40.6,-53.3,29.43,North,0,0.0,0.0,1,0.00,CLR,OVC,0.00,WeatherDisplay:10.37,2013-04-18 17:54:00,
2013-04-18 12:59:00,40.6,-53.3,29.42,North,0,0.0,0.0,1,0.00,CLR,OVC,0.00,WeatherDisplay:10.37,2013-04-18 17:59:00,
2013-04-18 13:04:00,40.6,-53.3,29.42,North,0,0.0,0.0,1,0.00,CLR,OVC,0.00,WeatherDisplay:10.37,2013-04-18 18:04:00,
2013-04-18 13:09:00,40.6,-53.3,29.43,North,0,0.0,0.0,1,0.00,CLR,OVC,0.00,WeatherDisplay:10.37,2013-04-18 18:09:00,
2013-04-18 13:14:00,40.6,-53.3,29.43,North,0,0.0,0.0,1,0.00,CLR,OVC,0.00,WeatherDisplay:10.37,2013-04-18 18:14:00,
2013-04-18 13:19:00,40.6,-53.3,29.44,North,0,0.0,0.0,1,0.00,CLR,OVC,0.00,WeatherDisplay:10.37,2013-04-18 18:19:00,
2013-04-18 13:24:00,40.6,-53.3,29.44,North,0,0.0,0.0,1,0.00,CLR,OVC,0.00,WeatherDisplay:10.37,2013-04-18 18:24:00,
2013-04-18 13:29:00,40.6,-53.3,29.44,North,0,0.0,0.0,1,0.00,CLR,OVC,0.00,WeatherDisplay:10.37,2013-04-18 18:29:00,
2013-04-18 13:34:00,40.6,-53.3,29.43,North,0,0.0,0.0,1,0.00,CLR,OVC,0.00,WeatherDisplay:10.37,2013-04-18 18:34:00,
2013-04-18 13:39:00,40.6,-53.3,29.43,North,0,0.0,0.0,1,0.00,CLR,OVC,0.00,WeatherDisplay:10.37,2013-04-18 18:39:00,
2013-04-18 13:44:00,40.6,-53.3,29.43,North,0,0.0,0.0,1,0.00,CLR,OVC,0.00,WeatherDisplay:10.37,2013-04-18 18:44:00,
2013-04-18 13:49:00,40.6,-53.3,29.43,North,0,0.0,0.0,1,0.00,CLR,OVC,0.00,WeatherDisplay:10.37,2013-04-18 18:49:00,
2013-04-18 13:54:00,40.6,-53.3,29.43,North,0,0.0,0.0,1,0.00,CLR,OVC,0.00,WeatherDisplay:10.37,2013-04-18 18:54:00,
2013-04-18 13:59:00,40.6,-53.3,29.44,North,0,0.0,0.0,1,0.00,CLR,OVC,0.00,WeatherDisplay:10.37,2013-04-18 18:59:00,
2013-04-18 14:05:00,40.6,-53.3,29.43,North,0,0.0,0.0,1,0.00,CLR,OVC,0.00,WeatherDisplay:10.37,2013-04-18 19:05:00,
2013-04-18 14:10:00,40.6,-53.3,29.44,North,0,0.0,0.0,1,0.00,CLR,OVC,0.00,WeatherDisplay:10.37,2013-04-18 19:10:00,
2013-04-18 14:15:00,40.6,-53.3,29.44,North,0,0.0,0.0,1,0.00,CLR,OVC,0.00,WeatherDisplay:10.37,2013-04-18 19:15:00,
2013-04-18 14:20:00,40.6,-53.3,29.44,North,0,0.0,0.0,1,0.00,CLR,OVC,0.00,WeatherDisplay:10.37,2013-04-18 19:20:00,
2013-04-18 14:25:00,40.6,-53.3,29.44,North,0,0.0,0.0,1,0.00,CLR,OVC,0.00,WeatherDisplay:10.37,2013-04-18 19:25:00,
2013-04-18 14:30:00,40.6,-53.3,29.44,North,0,0.0,0.0,1,0.00,CLR,OVC,0.00,WeatherDisplay:10.37,2013-04-18 19:30:00,
2013-04-18 14:35:00,41.2,-52.9,29.44,North,0,0.0,0.0,1,0.00,CLR,OVC,0.00,WeatherDisplay:10.37,2013-04-18 19:35:00,
2013-04-18 14:40:00,41.2,-52.9,29.44,North,0,0.0,0.0,1,0.00,CLR,OVC,0.00,WeatherDisplay:10.37,2013-04-18 19:40:00,
2013-04-18 14:45:00,41.2,-52.9,29.44,North,0,0.0,0.0,1,0.00,CLR,OVC,0.00,WeatherDisplay:10.37,2013-04-18 19:45:00,
2013-04-18 14:50:00,41.2,-52.9,29.43,North,0,0.0,0.0,1,0.00,CLR,OVC,0.00,WeatherDisplay:10.37,2013-04-18 19:50:00,
2013-04-18 14:55:00,41.2,-52.9,29.43,North,0,0.0,0.0,1,0.00,CLR,OVC,0.00,WeatherDisplay:10.37,2013-04-18 19:55:00,
2013-04-18 15:00:00,41.4,-52.8,29.42,North,0,0.0,0.0,1,0.00,CLR,OVC,0.00,WeatherDisplay:10.37,2013-04-18 20:00:00,
2013-04-18 15:05:00,41.4,-52.8,29.42,North,0,0.0,0.0,1,0.00,CLR,OVC,0.00,WeatherDisplay:10.37,2013-04-18 20:05:00,
2013-04-18 15:10:00,41.2,-52.9,29.42,North,0,0.0,0.0,1,0.00,CLR,OVC,0.00,WeatherDisplay:10.37,2013-04-18 20:10:00,
2013-04-18 15:15:00,41.2,-52.9,29.41,North,0,0.0,0.0,1,0.00,CLR,OVC,0.00,WeatherDisplay:10.37,2013-04-18 20:15:00,
2013-04-18 15:20:00,41.2,-52.9,29.41,North,0,0.0,0.0,1,0.00,CLR,OVC,0.00,WeatherDisplay:10.37,2013-04-18 20:20:00,
2013-04-18 15:25:00,41.0,-53.0,29.41,North,0,0.0,0.0,1,0.00,CLR,OVC,0.00,WeatherDisplay:10.37,2013-04-18 20:25:00,
2013-04-18 15:30:00,40.8,-53.2,29.41,North,0,0.0,0.0,1,0.00,CLR,OVC,0.00,WeatherDisplay:10.37,2013-04-18 20:30:00,
2013-04-18 15:35:00,40.6,-53.3,29.41,North,0,0.0,0.0,1,0.00,CLR,OVC,0.00,WeatherDisplay:10.37,2013-04-18 20:35:00,
2013-04-18 15:40:00,40.6,-53.3,29.41,North,0,0.0,0.0,1,0.00,CLR,OVC,0.00,WeatherDisplay:10.37,2013-04-18 20:40:00,
2013-04-18 15:45:00,40.5,-53.4,29.41,North,0,0.0,0.0,1,0.00,CLR,OVC,0.00,WeatherDisplay:10.37,2013-04-18 20:45:00,
2013-04-18 15:50:00,40.5,-53.4,29.40,North,0,0.0,0.0,1,0.00,CLR,OVC,0.00,WeatherDisplay:10.37,2013-04-18 20:50:00,
2013-04-18 15:55:00,40.3,-53.5,29.41,North,0,0.0,0.0,1,0.00,CLR,OVC,0.00,WeatherDisplay:10.37,2013-04-18 20:55:00,
2013-04-18 16:00:00,40.3,-53.5,29.41,North,0,0.0,0.0,1,0.00,CLR,OVC,0.00,WeatherDisplay:10.37,2013-04-18 21:00:00,
2013-04-18 16:05:00,40.1,-53.6,29.41,North,0,0.0,0.0,1,0.00,CLR,OVC,0.00,WeatherDisplay:10.37,2013-04-18 21:05:00,
2013-04-18 16:10:00,40.3,-53.5,29.41,North,0,0.0,0.0,1,0.00,CLR,OVC,0.00,WeatherDisplay:10.37,2013-04-18 21:10:00,
2013-04-18 16:15:00,40.1,-53.6,29.39,North,0,0.0,0.0,1,0.00,CLR,OVC,0.00,WeatherDisplay:10.37,2013-04-18 21:15:00,
2013-04-18 16:20:00,39.9,-53.7,29.40,North,0,0.0,0.0,1,0.00,CLR,OVC,0.00,WeatherDisplay:10.37,2013-04-18 21:20:00,
2013-04-18 16:25:00,39.9,-53.7,29.41,North,0,0.0,0.0,1,0.00,CLR,OVC,0.00,WeatherDisplay:10.37,2013-04-18 21:25:00,
2013-04-18 16:30:00,39.9,-53.7,29.40,North,0,0.0,0.0,1,0.00,CLR,OVC,0.00,WeatherDisplay:10.37,2013-04-18 21:30:00,
2013-04-18 16:35:00,39.9,-53.7,29.39,North,0,0.0,0.0,1,0.00,CLR,OVC,0.00,WeatherDisplay:10.37,2013-04-18 21:35:00,
2013-04-18 16:40:00,39.4,-54.1,29.39,North,0,0.0,0.0,1,0.00,CLR,OVC,0.00,WeatherDisplay:10.37,2013-04-18 21:40:00,
2013-04-18 16:45:00,39.4,-54.1,29.40,North,0,0.0,0.0,1,0.00,CLR,OVC,0.00,WeatherDisplay:10.37,2013-04-18 21:45:00,
2013-04-18 16:50:00,39.4,-54.1,29.40,North,0,0.0,0.0,1,0.00,CLR,OVC,0.00,WeatherDisplay:10.37,2013-04-18 21:50:00,
2013-04-18 16:55:00,39.2,-54.2,29.41,North,0,0.0,0.0,1,0.00,CLR,OVC,0.00,WeatherDisplay:10.37,2013-04-18 21:55:00,
2013-04-18 17:00:00,39.2,-54.2,29.41,North,0,0.0,0.0,1,0.00,CLR,OVC,0.00,WeatherDisplay:10.37,2013-04-18 22:00:00,
2013-04-18 17:05:00,39.0,-54.3,29.41,North,0,0.0,0.0,1,0.00,CLR,OVC,0.00,WeatherDisplay:10.37,2013-04-18 22:05:00,
2013-04-18 17:10:00,39.0,-54.3,29.41,North,0,0.0,0.0,1,0.00,CLR,OVC,0.00,WeatherDisplay:10.37,2013-04-18 22:10:00,
2013-04-18 17:15:00,39.0,-54.3,29.41,North,0,0.0,0.0,1,0.00,CLR,OVC,0.00,WeatherDisplay:10.37,2013-04-18 22:15:00,
2013-04-18 17:20:00,39.2,-54.2,29.41,North,0,0.0,0.0,1,0.00,CLR,OVC,0.00,WeatherDisplay:10.37,2013-04-18 22:20:00,
2013-04-18 17:25:00,39.2,-54.2,29.41,North,0,0.0,0.0,1,0.00,CLR,OVC,0.00,WeatherDisplay:10.37,2013-04-18 22:25:00,
2013-04-18 17:30:00,39.2,-54.2,29.41,North,0,0.0,0.0,1,0.00,CLR,OVC,0.00,WeatherDisplay:10.37,2013-04-18 22:30:00,
2013-04-18 17:35:00,39.2,-54.2,29.41,North,0,0.0,0.0,1,0.00,CLR,OVC,0.00,WeatherDisplay:10.37,2013-04-18 22:35:00,
2013-04-18 17:40:00,39.0,-54.3,29.41,North,0,0.0,0.0,1,0.00,CLR,OVC,0.00,WeatherDisplay:10.37,2013-04-18 22:40:00,
2013-04-18 17:45:00,39.0,-54.3,29.42,North,0,0.0,0.0,1,0.00,CLR,OVC,0.00,WeatherDisplay:10.37,2013-04-18 22:45:00,
2013-04-18 17:50:00,38.7,-54.5,29.42,North,0,0.0,0.0,1,0.00,CLR,OVC,0.00,WeatherDisplay:10.37,2013-04-18 22:50:00,
2013-04-18 17:55:00,38.5,-54.6,29.43,North,0,0.0,0.0,1,0.00,CLR,OVC,0.00,WeatherDisplay:10.37,2013-04-18 22:55:00,
2013-04-18 18:00:00,38.5,-54.6,29.43,North,0,0.0,0.0,1,0.00,CLR,OVC,0.00,WeatherDisplay:10.37,2013-04-18 23:00:00,
2013-04-18 18:05:00,38.5,-54.6,29.44,North,0,0.0,0.0,1,0.00,CLR,OVC,0.00,WeatherDisplay:10.37,2013-04-18 23:05:00,
2013-04-18 18:10:00,38.3,-54.7,29.44,North,0,0.0,0.0,1,0.00,CLR,OVC,0.00,WeatherDisplay:10.37,2013-04-18 23:10:00,
2013-04-18 18:15:00,38.3,-54.7,29.44,North,0,0.0,0.0,1,0.00,CLR,OVC,0.00,WeatherDisplay:10.37,2013-04-18 23:15:00,
2013-04-18 18:20:00,37.9,-55.0,29.44,North,0,0.0,0.0,1,0.00,CLR,OVC,0.00,WeatherDisplay:10.37,2013-04-18 23:20:00,
2013-04-18 18:25:00,37.6,-55.2,29.44,North,0,0.0,0.0,1,0.00,CLR,OVC,0.00,WeatherDisplay:10.37,2013-04-18 23:25:00,
2013-04-18 18:30:00,37.2,-55.4,29.44,North,0,0.0,0.0,1,0.00,CLR,OVC,0.00,WeatherDisplay:10.37,2013-04-18 23:30:00,
2013-04-18 18:35:00,37.0,-55.5,29.44,North,0,0.0,0.0,1,0.00,CLR,OVC,0.00,WeatherDisplay:10.37,2013-04-18 23:35:00,
2013-04-18 18:40:00,37.0,-55.5,29.44,North,0,0.0,0.0,1,0.00,CLR,OVC,0.00,WeatherDisplay:10.37,2013-04-18 23:40:00,
2013-04-18 18:45:00,36.7,-55.7,29.44,North,0,0.0,0.0,1,0.00,CLR,OVC,0.00,WeatherDisplay:10.37,2013-04-18 23:45:00,
2013-04-18 18:50:00,36.9,-55.6,29.44,North,0,0.0,0.0,1,0.00,CLR,OVC,0.00,WeatherDisplay:10.37,2013-04-18 23:50:00,
2013-04-18 18:55:00,36.3,-56.0,29.44,North,0,0.0,0.0,1,0.00,CLR,OVC,0.00,WeatherDisplay:10.37,2013-04-18 23:55:00,
2013-04-18 19:00:00,36.3,-56.0,29.45,North,0,0.0,0.0,1,0.00,CLR,OVC,0.00,WeatherDisplay:10.37,2013-04-19 00:00:00,
2013-04-18 19:05:00,35.8,-56.3,29.45,North,0,0.0,0.0,1,0.00,CLR,OVC,0.00,WeatherDisplay:10.37,2013-04-19 00:05:00,
2013-04-18 19:10:00,35.4,-56.5,29.45,North,0,0.0,0.0,1,0.00,CLR,OVC,0.00,WeatherDisplay:10.37,2013-04-19 00:10:00,
2013-04-18 19:15:00,35.1,-56.8,29.45,North,0,0.0,0.0,1,0.00,CLR,OVC,0.00,WeatherDisplay:10.37,2013-04-19 00:15:00,
2013-04-18 19:20:00,34.9,-56.9,29.45,North,0,0.0,0.0,1,0.00,CLR,OVC,0.00,WeatherDisplay:10.37,2013-04-19 00:20:00,
2013-04-18 19:26:00,34.5,-57.1,29.46,North,0,0.0,0.0,1,0.00,CLR,OVC,0.00,WeatherDisplay:10.37,2013-04-19 00:26:00,
2013-04-18 19:31:00,34.5,-57.1,29.46,North,0,0.0,0.0,1,0.00,CLR,OVC,0.00,WeatherDisplay:10.37,2013-04-19 00:31:00,
2013-04-18 19:36:00,34.3,-57.2,29.46,North,0,0.0,0.0,1,0.00,CLR,OVC,0.00,WeatherDisplay:10.37,2013-04-19 00:36:00,
2013-04-18 19:41:00,34.2,-57.3,29.46,North,0,0.0,0.0,1,0.00,CLR,OVC,0.00,WeatherDisplay:10.37,2013-04-19 00:41:00,
2013-04-18 19:46:00,34.2,-57.3,29.46,North,0,0.0,0.0,1,0.00,CLR,OVC,0.00,WeatherDisplay:10.37,2013-04-19 00:46:00,
2013-04-18 19:51:00,34.2,-57.3,29.46,North,0,0.0,0.0,1,0.00,CLR,OVC,0.00,WeatherDisplay:10.37,2013-04-19 00:51:00,
2013-04-18 19:56:00,34.0,-57.4,29.46,North,0,0.0,0.0,1,0.00,CLR,OVC,0.00,WeatherDisplay:10.37,2013-04-19 00:56:00,
2013-04-18 20:01:00,34.0,-57.4,29.46,North,0,0.0,0.0,1,0.00,CLR,OVC,0.00,WeatherDisplay:10.37,2013-04-19 01:01:00,
2013-04-18 20:06:00,34.2,-57.3,29.47,North,0,0.0,0.0,1,0.00,CLR,OVC,0.00,WeatherDisplay:10.37,2013-04-19 01:06:00,
2013-04-18 20:11:00,34.2,-57.3,29.47,North,0,0.0,0.0,1,0.00,CLR,OVC,0.00,WeatherDisplay:10.37,2013-04-19 01:11:00,
2013-04-18 20:16:00,34.2,-57.3,29.47,North,0,0.0,0.0,1,0.00,CLR,OVC,0.00,WeatherDisplay:10.37,2013-04-19 01:16:00,
2013-04-18 20:21:00,33.8,-57.5,29.48,North,0,0.0,0.0,1,0.00,CLR,OVC,0.00,WeatherDisplay:10.37,2013-04-19 01:21:00,
2013-04-18 20:26:00,33.8,-57.5,29.48,North,0,0.0,0.0,1,0.00,CLR,OVC,0.00,WeatherDisplay:10.37,2013-04-19 01:26:00,
2013-04-18 20:31:00,33.6,-57.7,29.48,North,0,0.0,0.0,1,0.00,CLR,OVC,0.00,WeatherDisplay:10.37,2013-04-19 01:31:00,
2013-04-18 20:36:00,33.4,-57.8,29.49,North,0,0.0,0.0,1,0.00,CLR,OVC,0.00,WeatherDisplay:10.37,2013-04-19 01:36:00,
2013-04-18 20:41:00,33.4,-57.8,29.49,North,0,0.0,0.0,1,0.00,CLR,OVC,0.00,WeatherDisplay:10.37,2013-04-19 01:41:00,
2013-04-18 20:46:00,33.4,-57.8,29.49,North,0,0.0,0.0,1,0.00,CLR,OVC,0.00,WeatherDisplay:10.37,2013-04-19 01:46:00,
2013-04-18 20:51:00,33.3,-57.9,29.49,North,0,0.0,0.0,1,0.00,CLR,OVC,0.00,WeatherDisplay:10.37,2013-04-19 01:51:00,
2013-04-18 20:56:00,33.1,-58.0,29.50,North,0,0.0,0.0,1,0.00,CLR,OVC,0.00,WeatherDisplay:10.37,2013-04-19 01:56:00,
2013-04-18 21:01:00,33.1,-58.0,29.50,North,0,0.0,0.0,1,0.00,CLR,OVC,0.00,WeatherDisplay:10.37,2013-04-19 02:01:00,
2013-04-18 21:06:00,33.1,-58.0,29.50,North,0,0.0,0.0,1,0.00,CLR,OVC,0.00,WeatherDisplay:10.37,2013-04-19 02:06:00,
2013-04-18 21:11:00,32.9,-58.1,29.51,North,0,0.0,0.0,1,0.00,CLR,OVC,0.00,WeatherDisplay:10.37,2013-04-19 02:11:00,
2013-04-18 21:16:00,32.9,-58.1,29.51,North,0,0.0,0.0,1,0.00,CLR,OVC,0.00,WeatherDisplay:10.37,2013-04-19 02:16:00,
2013-04-18 21:21:00,33.1,-58.0,29.51,North,0,0.0,0.0,1,0.00,CLR,OVC,0.00,WeatherDisplay:10.37,2013-04-19 02:21:00,
2013-04-18 21:26:00,33.1,-58.0,29.51,North,0,0.0,0.0,1,0.00,CLR,OVC,0.00,WeatherDisplay:10.37,2013-04-19 02:26:00,
2013-04-18 21:31:00,33.1,-58.0,29.51,North,0,0.0,0.0,1,0.00,CLR,OVC,0.00,WeatherDisplay:10.37,2013-04-19 02:31:00,
2013-04-18 21:36:00,32.7,-58.2,29.51,North,0,0.0,0.0,1,0.00,CLR,OVC,0.00,WeatherDisplay:10.37,2013-04-19 02:36:00,
2013-04-18 21:41:00,32.7,-58.2,29.51,North,0,0.0,0.0,1,0.00,CLR,OVC,0.00,WeatherDisplay:10.37,2013-04-19 02:41:00,
2013-04-18 21:46:00,32.7,-58.2,29.50,North,0,0.0,0.0,1,0.00,CLR,OVC,0.00,WeatherDisplay:10.37,2013-04-19 02:46:00,
2013-04-18 21:51:00,32.5,-58.3,29.50,North,0,0.0,0.0,1,0.00,CLR,OVC,0.00,WeatherDisplay:10.37,2013-04-19 02:51:00,
2013-04-18 21:56:00,32.5,-58.3,29.51,North,0,0.0,0.0,1,0.00,CLR,OVC,0.00,WeatherDisplay:10.37,2013-04-19 02:56:00,
2013-04-18 22:01:00,32.5,-58.3,29.51,North,0,0.0,0.0,1,0.00,CLR,OVC,0.00,WeatherDisplay:10.37,2013-04-19 03:01:00,
2013-04-18 22:06:00,32.4,-58.5,29.50,North,0,0.0,0.0,1,0.00,CLR,OVC,0.00,WeatherDisplay:10.37,2013-04-19 03:06:00,
2013-04-18 22:11:00,32.4,-58.5,29.50,North,0,0.0,0.0,1,0.00,CLR,OVC,0.00,WeatherDisplay:10.37,2013-04-19 03:11:00,
2013-04-18 22:16:00,32.4,-58.5,29.50,North,0,0.0,0.0,1,0.00,CLR,OVC,0.00,WeatherDisplay:10.37,2013-04-19 03:16:00,
2013-04-18 22:21:00,32.4,-58.5,29.50,North,0,0.0,0.0,1,0.00,CLR,OVC,0.00,WeatherDisplay:10.37,2013-04-19 03:21:00,
2013-04-18 22:26:00,32.2,-58.6,29.50,North,0,0.0,0.0,1,0.00,CLR,OVC,0.00,WeatherDisplay:10.37,2013-04-19 03:26:00,
2013-04-18 22:31:00,32.4,-58.5,29.49,North,0,0.0,0.0,1,0.00,CLR,OVC,0.00,WeatherDisplay:10.37,2013-04-19 03:31:00,
2013-04-18 22:36:00,32.5,-58.3,29.49,North,0,0.0,0.0,1,0.00,CLR,OVC,0.00,WeatherDisplay:10.37,2013-04-19 03:36:00,
2013-04-18 22:41:00,32.5,-58.3,29.49,North,0,0.0,0.0,1,0.00,CLR,OVC,0.00,WeatherDisplay:10.37,2013-04-19 03:41:00,
2013-04-18 22:46:00,32.5,-58.3,29.49,North,0,0.0,0.0,1,0.00,CLR,OVC,0.00,WeatherDisplay:10.37,2013-04-19 03:46:00,
2013-04-18 22:51:00,32.4,-58.5,29.49,North,0,0.0,0.0,1,0.00,CLR,OVC,0.00,WeatherDisplay:10.37,2013-04-19 03:51:00,
2013-04-18 22:56:00,32.4,-58.5,29.49,North,0,0.0,0.0,1,0.00,CLR,OVC,0.00,WeatherDisplay:10.37,2013-04-19 03:56:00,
2013-04-18 23:01:00,32.4,-58.5,29.49,North,0,0.0,0.0,1,0.00,CLR,OVC,0.00,WeatherDisplay:10.37,2013-04-19 04:01:00,
2013-04-18 23:06:00,32.2,-58.6,29.49,North,0,0.0,0.0,1,0.00,CLR,OVC,0.00,WeatherDisplay:10.37,2013-04-19 04:06:00,
2013-04-18 23:11:00,32.2,-58.6,29.49,North,0,0.0,0.0,1,0.00,CLR,OVC,0.00,WeatherDisplay:10.37,2013-04-19 04:11:00,
2013-04-18 23:16:00,32.2,-58.6,29.49,North,0,0.0,0.0,1,0.00,CLR,OVC,0.00,WeatherDisplay:10.37,2013-04-19 04:16:00,
2013-04-18 23:21:00,32.2,-58.6,29.49,North,0,0.0,0.0,1,0.00,CLR,OVC,0.00,WeatherDisplay:10.37,2013-04-19 04:21:00,
2013-04-18 23:26:00,32.2,-58.6,29.49,North,0,0.0,0.0,1,0.00,CLR,OVC,0.00,WeatherDisplay:10.37,2013-04-19 04:26:00,
2013-04-18 23:31:00,32.2,-58.6,29.49,North,0,0.0,0.0,1,0.00,CLR,OVC,0.00,WeatherDisplay:10.37,2013-04-19 04:31:00,
2013-04-18 23:36:00,32.2,-58.6,29.49,North,0,0.0,0.0,1,0.00,CLR,OVC,0.00,WeatherDisplay:10.37,2013-04-19 04:36:00,
2013-04-18 23:41:00,32.2,-58.6,29.49,North,0,0.0,0.0,1,0.00,CLR,OVC,0.00,WeatherDisplay:10.37,2013-04-19 04:41:00,
2013-04-18 23:46:00,32.2,-58.6,29.49,North,0,0.0,0.0,1,0.00,CLR,OVC,0.00,WeatherDisplay:10.37,2013-04-19 04:46:00,
2013-04-18 23:51:00,32.4,-58.5,29.49,North,0,0.0,0.0,1,0.00,CLR,OVC,0.00,WeatherDisplay:10.37,2013-04-19 04:51:00,
2013-04-18 23:56:00,32.5,-58.3,29.49,North,0,0.0,0.0,1,0.00,CLR,OVC,0.00,WeatherDisplay:10.37,2013-04-19 04:56:00,